METAR Data
IDs: Format: Raw Decoded Include TAF

Data at: 1742 UTC 21 Sep 2018

KRWV 211735Z AUTO 19010KT 10SM SCT028 30/24 A2997 RMK AO2 T03010239
KRWV 211715Z AUTO 17012KT 10SM SCT024 SCT031 30/24 A2998 RMK AO2 T03020243
KRWV 211655Z AUTO 17013KT 10SM BKN024 BKN031 30/24 A2998 RMK AO2 T03010244
KRWV 211635Z AUTO 19013G17KT 10SM BKN019 BKN026 OVC033 29/24 A2998 RMK AO2 LTG DSNT E T02920244
KRWV 211615Z AUTO 16010G16KT 10SM BKN017 29/25 A2998 RMK AO2 T02910253
KRWV 211555Z AUTO 18011KT 10SM BKN015 29/25 A2998 RMK AO2 T02860251
KRWV 211535Z AUTO 17009G17KT 10SM BKN015 28/25 A2998 RMK AO2 T02790250
KRWV 211515Z AUTO 16008KT 10SM BKN011 28/25 A2998 RMK AO2 T02750254
KRWV 211455Z AUTO 16007KT 10SM BKN009 OVC013 27/25 A2998 RMK AO2 T02690255 60001
KRWV 211435Z AUTO 14009KT 10SM OVC007 26/25 A2997 RMK AO2 T02630254
KRWV 211415Z AUTO 13005KT 10SM OVC003 26/25 A2997 RMK AO2 T02580252
KRWV 211355Z AUTO 13006KT 7SM OVC003 25/25 A2996 RMK AO2 P0001 T02550250
KRWV 211335Z AUTO 12004KT 7SM -RA BR OVC003 25/25 A2997 RMK AO2 P0001 T02530248
KRWV 211315Z AUTO 12006KT 7SM BR OVC003 25/25 A2996 RMK AO2 T02500246
KRWV 211255Z AUTO 12005KT 5SM BR OVC003 25/24 A2996 RMK AO2 T02490245
KRWV 211235Z AUTO 12005KT 5SM BR OVC003 25/24 A2996 RMK AO2 T02490245
KRWV 211215Z AUTO 12004KT 7SM BR BKN005 OVC008 25/24 A2995 RMK AO2 T02490245
KRWV 211155Z AUTO 10004KT 7SM SCT003 BKN007 BKN018 25/24 A2995 RMK AO2 T02490245 10251 20239 60002 70068
KRWV 211135Z AUTO 11004KT 7SM BKN007 BKN020 25/24 A2995 RMK AO2 T02490244
KRWV 211115Z AUTO 11003KT 10SM BKN007 25/24 A2995 RMK AO2
KRWV 211055Z AUTO 11003KT 10SM BKN007 BKN016 25/24 A2994 RMK AO2 T02490244
KRWV 211035Z AUTO 11003KT 10SM BKN007 BKN016 25/24 A2994 RMK AO2 T02500245
KRWV 211015Z AUTO 12003KT 10SM BKN007 BKN014 BKN120 25/24 A2994 RMK AO2 T02500244
KRWV 210955Z AUTO 13003KT 10SM BKN007 BKN012 25/24 A2994 RMK AO2 T02510245
KRWV 210935Z AUTO 15005KT 10SM BKN007 BKN012 25/24 A2994 RMK AO2 T02510245
KRWV 210915Z AUTO 16004KT 10SM SCT007 BKN016 BKN100 25/24 A2994 RMK AO2 T02510244
KRWV 210855Z AUTO 14005KT 10SM SCT016 SCT100 SCT120 25/24 A2994 RMK AO2 P0002 T02510244 60002
KRWV 210835Z AUTO 15004KT 10SM -RA SCT010 SCT044 BKN120 25/24 A2994 RMK AO2 P0002 T02510244
KRWV 210815Z AUTO 16006KT 10SM -RA SCT008 BKN015 BKN020 25/24 A2994 RMK AO2
KRWV 210755Z AUTO 14004KT 10SM SCT008 SCT017 SCT026 25/24 A2994 RMK AO2 T02460240
KRWV 210735Z AUTO 13003KT 10SM -DZ BKN017 BKN024 24/24 A2994 RMK AO2 T02440238
KRWV 210715Z AUTO 00000KT 10SM SCT017 SCT023 24/24 A2995 RMK AO2 T02420236
KRWV 210655Z AUTO 14003KT 10SM CLR 24/24 A2995 RMK AO2
KRWV 210635Z AUTO 13004KT 10SM CLR 24/23 A2995 RMK AO2 T02400234
KRWV 210615Z AUTO 13003KT 10SM SCT015 SCT023 24/23 A2995 RMK AO2 T02400233
KRWV 210555Z AUTO 12004KT 10SM SCT017 SCT023 SCT030 24/23 A2996 RMK AO2 T02390231 10239 20235 60003
KRWV 210535Z AUTO 13004KT 10SM SCT019 24/23 A2996 RMK AO2 T02370229
KRWV 210515Z AUTO 11004KT 10SM CLR 24/23 A2997 RMK AO2 T02370228
KRWV 210455Z AUTO 12004KT 10SM CLR 24/23 A2997 RMK AO2 T02370228
KRWV 210435Z AUTO 12004KT 10SM CLR 24/23 A2997 RMK AO2 T02370228
KRWV 210415Z AUTO 12004KT 10SM SCT019 24/23 A2998 RMK AO2 T02380230
KRWV 210355Z AUTO 11004KT 10SM SCT019 BKN110 24/23 A2997 RMK AO2 T02380230
KRWV 210335Z AUTO 12004KT 10SM SCT021 BKN110 24/23 A2997 RMK AO2 T02380230
KRWV 210315Z AUTO 11003KT 10SM BKN021 BKN120 24/23 A2997 RMK AO2 T02380230
KRWV 210250Z AUTO 12003KT 10SM BKN120 24/23 A2996 RMK AO2 60004
KRWV 210235Z AUTO 12004KT 10SM SCT120 24/23 A2995 RMK AO2 T02390230
KRWV 210215Z AUTO 00000KT 10SM SCT120 24/23 A2995 RMK AO2 LTG DSNT SW T02370228
KRWV 210155Z AUTO 13003KT 10SM CLR 24/23 A2994 RMK AO2 T02380229
KRWV 210135Z AUTO 12003KT 10SM CLR 24/23 A2994 RMK AO2 T02370229
KRWV 210115Z AUTO 10003KT 10SM SCT030 SCT100 24/23 A2994 RMK AO2 T02370230
KRWV 210055Z AUTO 10003KT 10SM SCT030 OVC100 23/23 A2994 RMK AO2 P0002 T02350227
KRWV 210035Z AUTO 00000KT 10SM SCT049 SCT070 BKN100 24/22 A2994 RMK AO2 LTG DSNT NE P0002 T02360225
KRWV 210015Z AUTO 13006KT 7SM -TSRA SCT045 SCT070 OVC110 24/23 A2995 RMK AO2 LTG DSNT NW THRU E P0001 T02360225
KRWV 202355Z AUTO 12006KT 7SM -VCTSRA SCT080 OVC110 24/23 A2994 RMK AO2 LTG DSNT ALQDS P0028 T02380226 10308 20234 403160232 60063
KRWV 202335Z AUTO 19007KT 10SM TSRA SCT020 BKN080 OVC100 24/22 A2992 RMK AO2 LTG DSNT ALQDS P0025 T02380225
KRWV 202315Z AUTO 19019G24KT 5SM +TSRA SCT017 BKN037 OVC047 26/23 A2993 RMK AO2 LTG DSNT SE THRU NW P0005 T02600233
KRWV 202255Z AUTO 05009KT 3SM RA SCT036 SCT045 SCT110 28/24 A2990 RMK AO2 LTG DSNT E THRU W P0005 T02840240
KRWV 202235Z AUTO 12007KT 10SM VCTS SCT040 29/23 A2991 RMK AO2 LTG DSNT SE THRU SW T02920232
KRWV 202215Z AUTO 11010G16KT 10SM SCT100 30/24 A2991 RMK AO2 LTG DSNT W T02980236
KRWV 202155Z AUTO 11012G17KT 10SM SCT036 SCT100 30/23 A2990 RMK AO2 LTG DSNT S AND SW T03010234
KRWV 202135Z AUTO 12006KT 10SM SCT100 31/24 A2991 RMK AO2 LTG DSNT S T03060237
KRWV 202115Z AUTO 12005KT 10SM SCT085 30/23 A2990 RMK AO2 LTG DSNT NE THRU SW T02990235
KRWV 202055Z AUTO 10005KT 10SM CLR 28/23 A2990 RMK AO2 LTG DSNT NE THRU SW T02800227 60028
KRWV 202035Z AUTO 11009G18KT 10SM SCT060 SCT080 29/24 A2992 RMK AO2 LTG DSNT W THRU NE T02870238
KRWV 202015Z AUTO 14009KT 10SM SCT080 SCT110 29/24 A2992 RMK AO2 LTG DSNT ALQDS T02910239
KRWV 201955Z AUTO 17007KT 10SM VCTS SCT110 28/23 A2994 RMK AO2 LTG DSNT NW THRU E P0001 T02790227
KRWV 201935Z AUTO 13006KT 10SM -VCTSRA SCT029 SCT036 BKN095 27/21 A2995 RMK AO2 LTG DSNT ALQDS P0001 T02670211
KRWV 201915Z AUTO 18010KT 7SM TSRA SCT032 BKN047 BKN070 26/24 A2995 RMK AO2 LTG DSNT ALQDS P0001 T02580242
KRWV 201855Z AUTO 25006KT 10SM TSRA SCT037 BKN050 OVC110 24/23 A2996 RMK AO2 LTG DSNT ALQDS P0028 T02420226
KRWV 201835Z AUTO 29008KT 10SM -TSRA SCT026 BKN039 OVC070 25/22 A2996 RMK AO2 LTG DSNT ALQDS P0024 T02490216
KRWV 201815Z AUTO 28008KT 230V300 4SM +TSRA BR BKN028 BKN048 OVC060 26/23 A2997 RMK AO2 LTG DSNT ALQDS P0014 T02580233
KRWV 201755Z AUTO 13008KT 10SM TS SCT030 BKN040 BKN055 30/23 A2996 RMK AO2 LTG DSNT W T02970234 10304 20232
KRWV 201735Z AUTO 16005KT 10SM VCTS SCT023 SCT030 SCT055 30/24 A2997 RMK AO2 LTG DSNT SW AND W T03000237
KRWV 201715Z AUTO 17006KT 10SM SCT023 BKN030 30/24 A2999 RMK AO2 LTG DSNT E AND SW T02980241
KRWV 201655Z AUTO 15009KT 10SM BKN021 BKN028 30/24 A2999 RMK AO2 LTG DSNT SW T02960242
KRWV 201635Z AUTO 15008KT 10SM SCT023 BKN028 29/24 A3000 RMK AO2 LTG DSNT E T02920240
KRWV 201615Z AUTO 16007KT 10SM SCT021 29/24 A3000 RMK AO2 T02890237
KRWV 201555Z AUTO 14008KT 10SM SCT017 29/24 A2999 RMK AO2 T02880240
KRWV 201535Z AUTO 15008KT 10SM BKN015 29/24 A3000 RMK AO2 LTG DSNT SW T02900244
KRWV 201515Z AUTO 17007KT 10SM BKN013 27/25 A3000 RMK AO2 T02740246
KRWV 201455Z AUTO 17007KT 10SM SCT009 27/25 A2999 RMK AO2 T02710247
KRWV 201435Z AUTO 16006KT 10SM CLR 26/25 A2999 RMK AO2 T02620245
KRWV 201415Z AUTO 15004KT 10SM CLR 25/24 A2998 RMK AO2 T02530240
KRWV 201355Z AUTO 13004KT 10SM CLR 25/24 A2998 RMK AO2 T02500238
KRWV 201335Z AUTO 15004KT 10SM CLR 25/24 A2998 RMK AO2 T02480238
KRWV 201315Z AUTO 12003KT 10SM CLR 24/23 A2997 RMK AO2 T02390232
KRWV 201255Z AUTO 12003KT 7SM CLR 23/23 A2997 RMK AO2 T02350229
KRWV 201235Z AUTO 10003KT 10SM CLR 23/23 A2996 RMK AO2 T02330228
KRWV 201215Z AUTO 00000KT 10SM CLR 23/23 A2996 RMK AO2 T02330227
KRWV 201155Z AUTO 00000KT 10SM CLR 23/23 A2995 RMK AO2 LTG DSNT SW T02340227 10252 20233
KRWV 201135Z AUTO 00000KT 10SM SCT013 23/23 A2995 RMK AO2 T02350228
KRWV 201115Z AUTO 00000KT 10SM BKN013 24/23 A2995 RMK AO2 T02350228
KRWV 201055Z AUTO 00000KT 10SM BKN013 24/23 A2995 RMK AO2 T02350228
KRWV 201035Z AUTO 00000KT 10SM CLR 23/23 A2994 RMK AO2 T02350227
KRWV 201015Z AUTO 16003KT 10SM CLR 23/23 A2994 RMK AO2 T02340227
KRWV 200955Z AUTO 00000KT 10SM CLR 23/23 A2994 RMK AO2 T02350227
KRWV 200935Z AUTO 17003KT 10SM CLR 23/23 A2994 RMK AO2 T02330226
KRWV 200915Z AUTO 15003KT 10SM CLR 23/22 A2995 RMK AO2 T02330225
KRWV 200855Z AUTO 18004KT 10SM CLR 23/23 A2995 RMK AO2 T02350226
KRWV 200835Z AUTO 00000KT 10SM CLR 24/23 A2995 RMK AO2 T02370228
KRWV 200815Z AUTO 17003KT 10SM CLR 24/23 A2996 RMK AO2 T02390227
KRWV 200755Z AUTO 17003KT 10SM CLR 24/23 A2996 RMK AO2 T02380226
KRWV 200735Z AUTO 17004KT 10SM CLR 24/23 A2996 RMK AO2 T02400227
KRWV 200715Z AUTO 17003KT 10SM CLR 24/23 A2996 RMK AO2 T02420227
KRWV 200655Z AUTO 17003KT 10SM CLR 24/23 A2996 RMK AO2 T02440227
KRWV 200635Z AUTO 18005KT 10SM CLR 25/23 A2996 RMK AO2 T02480228
KRWV 200615Z AUTO 17004KT 10SM CLR 25/23 A2997 RMK AO2 T02500228
KRWV 200555Z AUTO 15005KT 10SM CLR 25/23 A2998 RMK AO2 T02530229 10316 20252